Terminal Aerodrome Forecast
Issued by NWS Lubbock, TX

Home | Current Version | Previous Version | Text Only | Print | Product List | Glossary On
Versions: 1 2 3 4 5 6 7 8 9 10 11 12 13
000
FTUS44 KLUB 031721
TAFLBB
TAF
KLBB 031721Z 0318/0418 18016G21KT P6SM FEW150 SCT250
     FM040600 16010KT P6SM FEW020 SCT150 BKN250
     FM041200 17013KT P6SM OVC020 PROB30 0415/0418 -TSRA BKN040CB=

USA.gov is the U.S. government's official web portal to all federal, state and local government web resources and services.